Time;durP1;ratioP1;P1;durP2;ratioP2;P2;SDS_P1;SDS_P2;PMS_P1;PMS_P2;Temp;Humidity;BMP_temperature;BMP_pressure;BME280_temperature;BME280_humidity;BME280_pressure;Samples;Min_cycle;Max_cycle;Signal;HPM_P1;HPM_P2
2023/12/14 00:01:27;;;;;;;3.90;1.47;;;;;;;6.19;94.12;94479.84;4975848;28;20218;-78
2023/12/14 00:03:53;;;;;;;4.43;1.90;;;;;;;6.18;93.53;94478.22;4993968;28;20574;-78
2023/12/14 00:06:18;;;;;;;3.00;1.43;;;;;;;6.03;94.33;94479.69;4966603;28;20242;-79
2023/12/14 00:08:43;;;;;;;3.63;1.57;;;;;;;6.14;94.15;94484.63;4994232;28;20198;-79
2023/12/14 00:11:10;;;;;;;2.63;1.60;;;;;;;6.21;93.64;94490.81;4993791;28;20263;-79
2023/12/14 00:13:36;;;;;;;3.13;1.40;;;;;;;6.18;93.71;94489.34;4981240;28;20187;-79
2023/12/14 00:16:02;;;;;;;3.97;1.40;;;;;;;6.12;93.71;94489.13;4996619;28;20212;-79
2023/12/14 00:18:27;;;;;;;1.67;1.20;;;;;;;6.18;94.14;94498.84;4995601;28;20200;-79
2023/12/14 00:20:53;;;;;;;2.80;1.33;;;;;;;6.12;93.63;94500.25;4975596;28;20270;-79
2023/12/14 00:23:19;;;;;;;1.50;1.20;;;;;;;6.18;93.26;94502.25;4976990;28;20583;-79
2023/12/14 00:25:44;;;;;;;3.73;1.50;;;;;;;6.17;93.34;94497.22;4976856;28;20222;-79
2023/12/14 00:28:10;;;;;;;4.47;1.60;;;;;;;6.04;94.29;94499.34;4992725;28;20609;-78
2023/12/14 00:30:35;;;;;;;3.60;1.50;;;;;;;6.00;94.37;94510.88;4994380;28;20190;-79
2023/12/14 00:33:00;;;;;;;1.93;1.20;;;;;;;6.06;93.64;94516.28;4992930;28;20199;-79
2023/12/14 00:35:26;;;;;;;3.20;1.13;;;;;;;6.08;93.28;94514.38;4976796;28;20210;-77
2023/12/14 00:37:51;;;;;;;2.53;1.30;;;;;;;6.08;93.72;94516.13;4993341;28;20546;-79
2023/12/14 00:40:16;;;;;;;2.77;1.30;;;;;;;5.97;94.42;94519.72;4975925;28;20200;-79
2023/12/14 00:42:42;;;;;;;1.63;1.23;;;;;;;6.23;92.92;94518.06;4978429;28;20717;-78
2023/12/14 00:45:08;;;;;;;2.37;1.17;;;;;;;6.25;92.41;94523.88;4976681;28;20261;-80
2023/12/14 00:47:33;;;;;;;2.20;1.50;;;;;;;6.20;92.33;94523.53;4962967;28;20192;-79
2023/12/14 00:49:59;;;;;;;3.77;1.30;;;;;;;6.07;92.13;94522.25;4977333;28;20184;-78
2023/12/14 00:52:24;;;;;;;2.70;1.40;;;;;;;6.05;92.62;94531.91;4999368;28;20203;-79
2023/12/14 00:54:49;;;;;;;2.90;1.27;;;;;;;5.94;93.32;94536.31;4999356;28;20218;-79
2023/12/14 00:57:15;;;;;;;2.40;1.70;;;;;;;5.93;92.97;94537.25;5001487;28;20192;-79
2023/12/14 00:59:40;;;;;;;1.67;1.30;;;;;;;6.03;92.56;94542.34;4966191;28;20198;-79
2023/12/14 01:02:06;;;;;;;2.90;1.13;;;;;;;5.99;92.29;94550.50;4995381;28;20290;-80
2023/12/14 01:04:31;;;;;;;1.83;1.70;;;;;;;5.93;92.12;94551.91;4993325;28;20207;-79
2023/12/14 01:06:56;;;;;;;2.00;1.43;;;;;;;5.93;91.87;94551.91;4993893;28;20595;-80
2023/12/14 01:09:22;;;;;;;3.47;1.60;;;;;;;5.92;92.16;94560.59;4970697;28;20223;-80
2023/12/14 01:11:47;;;;;;;1.83;1.70;;;;;;;5.88;92.30;94556.63;4996074;28;20225;-80
2023/12/14 01:14:12;;;;;;;1.73;1.43;;;;;;;5.89;92.54;94571.13;4994822;28;20909;-79
2023/12/14 01:16:38;;;;;;;2.43;1.33;;;;;;;5.84;93.36;94574.16;4996767;28;20314;-80
2023/12/14 01:19:05;;;;;;;3.27;2.00;;;;;;;5.82;93.99;94581.19;4982915;28;20198;-80
2023/12/14 01:21:31;;;;;;;2.50;1.83;;;;;;;5.94;93.44;94585.25;4976252;28;20211;-79
2023/12/14 01:23:56;;;;;;;2.23;1.73;;;;;;;5.96;93.64;94598.00;4992246;28;20283;-80
2023/12/14 01:26:22;;;;;;;3.60;1.67;;;;;;;5.99;93.47;94594.31;4993413;28;20215;-79
2023/12/14 01:28:47;;;;;;;3.00;1.40;;;;;;;6.04;93.27;94597.28;4974939;28;20184;-79
2023/12/14 01:31:12;;;;;;;1.83;1.30;;;;;;;6.08;93.31;94607.16;4970402;28;20192;-79
2023/12/14 01:33:38;;;;;;;1.50;1.40;;;;;;;6.12;93.26;94605.13;4992805;28;20270;-79
2023/12/14 01:36:03;;;;;;;1.53;0.83;;;;;;;6.14;93.22;94613.50;4993244;28;20605;-79
2023/12/14 01:38:28;;;;;;;2.10;1.13;;;;;;;6.16;92.96;94612.41;4992436;28;20195;-79
2023/12/14 01:40:55;;;;;;;1.50;1.00;;;;;;;6.17;93.51;94621.75;4973362;28;20215;-79
2023/12/14 01:43:21;;;;;;;2.07;1.20;;;;;;;6.21;93.21;94617.16;4977908;28;20567;-80
2023/12/14 01:45:47;;;;;;;2.03;1.07;;;;;;;6.25;93.25;94621.84;4993359;28;20218;-79
2023/12/14 01:48:12;;;;;;;3.13;1.30;;;;;;;6.33;92.90;94623.72;4974745;28;20845;-80
2023/12/14 01:50:37;;;;;;;1.90;1.40;;;;;;;6.32;92.79;94622.09;4992175;28;20196;-79
2023/12/14 01:53:03;;;;;;;2.73;1.37;;;;;;;6.37;92.62;94632.00;4992699;28;20210;-80
2023/12/14 01:55:29;;;;;;;2.77;1.30;;;;;;;6.37;92.83;94627.66;4992719;28;20211;-80
2023/12/14 01:57:54;;;;;;;1.60;1.50;;;;;;;6.39;92.81;94635.25;4992199;28;20193;-80
2023/12/14 02:00:48;;;;;;;3.43;1.80;;;;;;;6.42;92.55;94640.09;4975247;28;20258;-79
2023/12/14 02:03:14;;;;;;;3.43;1.67;;;;;;;6.40;92.76;94647.97;4992101;28;20278;-79
2023/12/14 02:05:39;;;;;;;4.03;1.63;;;;;;;6.29;93.44;94645.59;4975450;28;20234;-80
2023/12/14 02:08:05;;;;;;;2.23;1.50;;;;;;;6.31;93.52;94654.00;4992233;28;20689;-79
2023/12/14 02:10:30;;;;;;;2.90;1.80;;;;;;;6.35;93.63;94651.94;4974230;28;20573;-80
2023/12/14 02:12:55;;;;;;;3.60;1.90;;;;;;;6.28;93.90;94638.03;4992993;28;20278;-80
2023/12/14 02:15:21;;;;;;;4.47;2.60;;;;;;;6.25;94.12;94639.09;4993942;28;20309;-79
2023/12/14 02:17:46;;;;;;;3.87;2.07;;;;;;;6.26;94.08;94651.03;4992030;28;20528;-79
2023/12/14 02:20:11;;;;;;;1.90;1.80;;;;;;;6.22;94.02;94652.28;4991974;28;20188;-78
2023/12/14 02:22:56;;;;;;;2.93;1.60;;;;;;;6.22;94.44;94649.69;4979013;28;20203;-79
2023/12/14 02:25:23;;;;;;;2.37;1.73;;;;;;;6.14;94.13;94660.72;4990117;28;20354;-79
2023/12/14 02:27:50;;;;;;;4.10;1.67;;;;;;;6.10;94.40;94658.59;4975147;28;20199;-79
2023/12/14 02:30:15;;;;;;;3.00;2.00;;;;;;;6.14;94.29;94654.75;4995325;28;20191;-79
2023/12/14 02:32:41;;;;;;;3.27;1.80;;;;;;;6.08;94.38;94663.84;4979502;28;20180;-79
2023/12/14 02:35:07;;;;;;;2.27;1.70;;;;;;;6.21;93.64;94669.53;4996377;28;20219;-79
2023/12/14 02:37:33;;;;;;;2.30;2.10;;;;;;;6.24;93.39;94665.84;4975947;28;20189;-79
2023/12/14 02:39:59;;;;;;;2.13;1.93;;;;;;;6.24;93.32;94669.22;4996120;28;20221;-79
2023/12/14 02:42:24;;;;;;;4.33;2.00;;;;;;;6.24;93.27;94671.00;4996700;28;20673;-78
2023/12/14 02:44:50;;;;;;;2.87;1.90;;;;;;;6.26;93.23;94669.06;4978704;28;20204;-79
2023/12/14 02:47:15;;;;;;;4.07;2.20;;;;;;;6.28;93.25;94676.69;4998366;28;20187;-79
2023/12/14 02:49:41;;;;;;;1.63;1.53;;;;;;;6.32;93.25;94675.44;4977889;28;20207;-79
2023/12/14 02:52:06;;;;;;;5.10;2.30;;;;;;;6.29;92.91;94680.91;4976444;28;20551;-79
2023/12/14 02:54:31;;;;;;;2.37;2.17;;;;;;;6.26;93.32;94681.97;4975692;28;20755;-80
2023/12/14 02:56:57;;;;;;;2.33;2.10;;;;;;;6.23;93.41;94680.50;4978151;28;20639;-80
2023/12/14 02:59:22;;;;;;;2.53;2.33;;;;;;;6.21;93.35;94691.91;4965087;28;20191;-78
2023/12/14 03:01:47;;;;;;;2.20;2.00;;;;;;;6.23;93.36;94690.00;4977986;28;20211;-79
2023/12/14 03:04:13;;;;;;;3.37;2.33;;;;;;;6.19;93.26;94696.41;4995238;28;20665;-78
2023/12/14 03:06:38;;;;;;;2.10;1.80;;;;;;;6.17;93.61;94700.88;4995567;28;20594;-79
2023/12/14 03:09:04;;;;;;;3.67;2.20;;;;;;;6.17;93.79;94706.84;4975695;28;20190;-79
2023/12/14 03:11:29;;;;;;;3.27;2.17;;;;;;;6.20;93.49;94716.88;4994846;28;20217;-79
2023/12/14 03:13:54;;;;;;;2.90;2.27;;;;;;;6.23;93.49;94713.19;4978543;28;20222;-78
2023/12/14 03:16:20;;;;;;;3.67;2.20;;;;;;;6.25;93.55;94714.69;4978088;28;20302;-79
2023/12/14 03:18:45;;;;;;;2.03;1.90;;;;;;;6.26;93.68;94720.66;4977075;28;20223;-79
2023/12/14 03:21:11;;;;;;;3.67;2.10;;;;;;;6.31;93.48;94718.47;4977934;28;20192;-79
2023/12/14 03:23:36;;;;;;;4.77;2.27;;;;;;;6.22;94.26;94722.69;4994690;28;20642;-79
2023/12/14 03:26:02;;;;;;;4.43;2.27;;;;;;;6.25;94.23;94722.41;4994691;28;20246;-79
2023/12/14 03:28:27;;;;;;;2.50;2.20;;;;;;;6.27;94.47;94724.84;4959384;28;20184;-78
2023/12/14 03:30:53;;;;;;;3.10;2.33;;;;;;;6.20;95.44;94728.97;4976290;28;20554;-78
2023/12/14 03:33:19;;;;;;;3.57;2.47;;;;;;;6.33;95.16;94736.38;4994564;28;20287;-78
2023/12/14 03:35:46;;;;;;;2.80;2.43;;;;;;;6.40;94.51;94732.28;4976876;28;20215;-79
2023/12/14 03:38:13;;;;;;;3.43;2.77;;;;;;;6.45;94.53;94743.81;4976417;28;20184;-79
2023/12/14 03:40:38;;;;;;;2.50;2.30;;;;;;;6.44;94.54;94741.34;4992144;28;20275;-78
2023/12/14 03:43:04;;;;;;;3.70;2.20;;;;;;;6.48;94.47;94742.69;4996554;28;20643;-78
2023/12/14 03:45:29;;;;;;;3.77;2.40;;;;;;;6.48;94.40;94748.66;4977063;28;20215;-79
2023/12/14 03:47:55;;;;;;;2.60;2.37;;;;;;;6.46;94.78;94742.84;4993208;28;20200;-79
2023/12/14 03:50:20;;;;;;;3.07;2.37;;;;;;;6.53;94.36;94749.03;4993675;28;20674;-78
2023/12/14 03:52:46;;;;;;;3.00;2.70;;;;;;;6.47;94.76;94751.41;4976439;28;20227;-78
2023/12/14 03:55:11;;;;;;;3.60;2.60;;;;;;;6.52;94.55;94762.06;4993775;28;20290;-78
2023/12/14 03:57:37;;;;;;;3.17;2.70;;;;;;;6.52;94.55;94770.63;4992104;28;20192;-79
2023/12/14 04:00:03;;;;;;;6.83;4.07;;;;;;;6.49;94.64;94776.06;4993951;28;20273;-78
2023/12/14 04:02:28;;;;;;;6.70;3.70;;;;;;;6.56;94.53;94783.25;4975263;28;20204;-78
2023/12/14 04:04:54;;;;;;;5.40;3.70;;;;;;;6.47;94.92;94788.31;4972232;28;20646;-80
2023/12/14 04:07:19;;;;;;;3.70;3.10;;;;;;;6.50;95.13;94793.19;4975126;28;20188;-78
2023/12/14 04:09:45;;;;;;;5.00;2.77;;;;;;;6.49;94.94;94788.97;4975851;28;20190;-79
2023/12/14 04:12:11;;;;;;;2.77;2.50;;;;;;;6.53;94.80;94792.06;4992842;28;20668;-80
2023/12/14 04:14:36;;;;;;;2.30;2.10;;;;;;;6.55;94.71;94800.50;4996233;28;20215;-79
2023/12/14 04:17:01;;;;;;;2.63;2.13;;;;;;;6.56;94.65;94799.56;4992759;28;20202;-79
2023/12/14 04:19:27;;;;;;;4.17;2.40;;;;;;;6.51;94.95;94807.69;4993964;28;20188;-79
2023/12/14 04:21:52;;;;;;;2.50;2.30;;;;;;;6.51;94.95;94807.69;4993267;28;20589;-79
2023/12/14 04:24:17;;;;;;;3.20;2.00;;;;;;;6.52;95.00;94806.75;4993577;28;20761;-78
2023/12/14 04:26:43;;;;;;;3.43;2.33;;;;;;;6.52;94.95;94817.06;4983549;28;20196;-79
2023/12/14 04:29:08;;;;;;;3.07;2.20;;;;;;;6.52;95.04;94824.78;4995867;28;20239;-79
2023/12/14 04:31:34;;;;;;;2.53;1.97;;;;;;;6.54;94.96;94829.84;4994605;28;20180;-79
2023/12/14 04:34:00;;;;;;;3.10;2.37;;;;;;;6.55;94.95;94828.06;4993986;28;20191;-78
2023/12/14 04:36:25;;;;;;;2.50;2.30;;;;;;;6.55;95.26;94831.47;4994024;28;20177;-79
2023/12/14 04:38:50;;;;;;;2.77;2.37;;;;;;;6.51;95.00;94828.34;4993742;28;20642;-79
2023/12/14 04:41:16;;;;;;;2.37;2.17;;;;;;;6.50;95.40;94839.59;4976527;28;20203;-79
2023/12/14 04:43:41;;;;;;;2.50;2.30;;;;;;;6.52;95.15;94839.47;4978212;28;20192;-79
2023/12/14 04:46:06;;;;;;;2.50;2.30;;;;;;;6.52;95.15;94842.03;4979602;28;20202;-80
2023/12/14 04:48:32;;;;;;;2.70;2.50;;;;;;;6.51;95.18;94848.97;4992493;28;20279;-79
2023/12/14 04:50:57;;;;;;;3.00;2.60;;;;;;;6.56;94.99;94852.91;4975506;28;20259;-79
2023/12/14 04:53:23;;;;;;;2.53;2.33;;;;;;;6.55;94.95;94854.69;4958582;28;20202;-78
2023/12/14 04:55:48;;;;;;;4.17;3.00;;;;;;;6.59;94.88;94857.78;4975104;28;20318;-78
2023/12/14 04:58:13;;;;;;;4.77;3.63;;;;;;;6.57;94.95;94859.69;4992132;28;20210;-79
2023/12/14 05:00:39;;;;;;;4.23;3.37;;;;;;;6.55;95.30;94859.03;4976420;28;20195;-79
2023/12/14 05:03:04;;;;;;;2.63;2.30;;;;;;;6.48;95.66;94871.66;4974985;28;20203;-77
2023/12/14 05:05:29;;;;;;;3.60;2.60;;;;;;;6.54;95.68;94865.94;4992246;28;20243;-78
2023/12/14 05:07:55;;;;;;;3.30;2.77;;;;;;;6.59;95.54;94873.25;4990979;28;20238;-79
2023/12/14 05:10:20;;;;;;;3.47;3.17;;;;;;;6.63;95.28;94875.44;4975149;28;20228;-79
2023/12/14 05:12:45;;;;;;;4.03;3.43;;;;;;;6.61;95.62;94882.47;4978458;28;20708;-79
2023/12/14 05:15:11;;;;;;;4.37;3.50;;;;;;;6.59;95.96;94888.75;4959620;28;20258;-79
2023/12/14 05:17:36;;;;;;;3.10;2.80;;;;;;;6.62;96.10;94893.59;4991906;28;20207;-77
2023/12/14 05:20:04;;;;;;;2.87;2.67;;;;;;;6.60;95.96;94898.09;4992215;28;20650;-79
2023/12/14 05:22:29;;;;;;;5.03;3.57;;;;;;;6.55;96.39;94895.13;4974568;28;20266;-79
2023/12/14 05:24:55;;;;;;;8.90;4.07;;;;;;;6.50;96.85;94900.69;4974914;28;20215;-78
2023/12/14 05:27:20;;;;;;;11.13;4.67;;;;;;;6.53;97.01;94906.38;4974306;28;20192;-79
2023/12/14 05:29:46;;;;;;;15.97;4.93;;;;;;;6.52;96.72;94914.25;4991572;28;20693;-79
2023/12/14 05:32:11;;;;;;;34.80;4.97;;;;;;;6.43;97.61;94917.66;4992303;28;20199;-79
2023/12/14 05:34:37;;;;;;;91.37;8.17;;;;;;;6.41;98.33;94922.97;4992057;28;20214;-78
2023/12/14 05:37:02;;;;;;;11.43;4.87;;;;;;;6.58;97.02;94928.38;4996609;28;20202;-79
2023/12/14 05:39:28;;;;;;;94.63;10.53;;;;;;;6.47;97.80;94937.09;4977994;28;20195;-79
2023/12/14 05:41:53;;;;;;;12.93;4.67;;;;;;;6.56;97.42;94941.44;4999519;28;20242;-79
2023/12/14 05:44:19;;;;;;;61.97;10.00;;;;;;;6.42;98.24;94940.06;4978702;28;20222;-79
2023/12/14 05:46:44;;;;;;;6.70;5.07;;;;;;;6.48;98.79;94946.47;4992152;28;20196;-80
2023/12/14 05:49:09;;;;;;;8.73;6.30;;;;;;;6.52;98.19;94951.19;4973602;28;20645;-79
2023/12/14 05:51:36;;;;;;;7.40;5.80;;;;;;;6.56;97.93;94956.91;4972372;28;20254;-77
2023/12/14 05:54:02;;;;;;;6.17;4.93;;;;;;;6.54;98.00;94953.66;4992798;28;20649;-79
2023/12/14 05:56:27;;;;;;;6.37;4.97;;;;;;;6.62;97.64;94966.66;4993123;28;20219;-79
2023/12/14 05:58:53;;;;;;;15.50;6.03;;;;;;;6.48;97.92;94965.31;4973991;28;20192;-80
2023/12/14 06:01:18;;;;;;;6.73;5.20;;;;;;;6.55;97.90;94960.44;4992239;28;20745;-80
2023/12/14 06:03:44;;;;;;;6.80;5.13;;;;;;;6.59;97.72;94971.28;4959268;28;20254;-80
2023/12/14 06:06:11;;;;;;;5.47;4.30;;;;;;;6.61;97.68;94977.13;4975568;28;20199;-80
2023/12/14 06:08:37;;;;;;;5.17;4.30;;;;;;;6.61;97.54;94983.09;4991810;28;20188;-80
2023/12/14 06:11:03;;;;;;;4.53;3.97;;;;;;;6.61;97.44;94979.69;4974666;28;20625;-80
2023/12/14 06:13:28;;;;;;;5.27;3.73;;;;;;;6.64;97.60;94984.59;4997918;28;20215;-80
2023/12/14 06:15:53;;;;;;;5.53;4.57;;;;;;;6.59;97.63;94982.41;4975072;28;20222;-80
2023/12/14 06:18:19;;;;;;;9.47;5.87;;;;;;;6.62;97.76;94991.66;4974732;28;20219;-78
2023/12/14 06:20:44;;;;;;;8.13;6.67;;;;;;;6.64;97.77;94997.50;4991401;28;20980;-80
2023/12/14 06:23:10;;;;;;;8.63;7.10;;;;;;;6.63;97.58;94999.28;4992714;28;20281;-80
2023/12/14 06:25:35;;;;;;;10.20;8.07;;;;;;;6.62;98.07;95007.13;4975390;28;20336;-79
2023/12/14 06:28:01;;;;;;;15.27;12.23;;;;;;;6.63;98.06;95001.03;4991730;28;20191;-81
2023/12/14 06:30:26;;;;;;;14.10;11.00;;;;;;;6.63;97.99;95011.38;4973859;28;20677;-80
2023/12/14 06:32:51;;;;;;;9.70;8.07;;;;;;;6.66;98.05;95014.47;4991735;28;20188;-80
2023/12/14 06:35:17;;;;;;;12.17;9.00;;;;;;;6.70;97.69;95017.56;4974315;28;20203;-79
2023/12/14 06:37:42;;;;;;;10.77;7.37;;;;;;;6.68;97.79;95033.19;4991536;28;20247;-79
2023/12/14 06:40:08;;;;;;;21.07;14.33;;;;;;;6.64;98.19;95044.75;4988154;28;20201;-79
2023/12/14 06:42:34;;;;;;;26.83;21.07;;;;;;;6.66;97.99;95035.13;4994854;28;20211;-77
2023/12/14 06:45:02;;;;;;;17.93;13.97;;;;;;;6.74;97.74;95042.19;4992278;28;20211;-79
2023/12/14 06:47:28;;;;;;;17.93;12.97;;;;;;;6.68;98.01;95053.03;4988764;28;20219;-80
2023/12/14 06:49:53;;;;;;;28.60;16.97;;;;;;;6.68;97.95;95055.63;4991896;28;20285;-80
2023/12/14 06:52:18;;;;;;;78.43;25.77;;;;;;;6.53;99.27;95055.19;4991080;28;20180;-79
2023/12/14 06:54:44;;;;;;;34.90;20.20;;;;;;;6.60;99.01;95063.22;4987990;28;20693;-79
2023/12/14 06:57:09;;;;;;;28.97;15.00;;;;;;;6.56;99.25;95067.03;4989008;28;20203;-80
2023/12/14 06:59:34;;;;;;;55.83;19.20;;;;;;;6.59;98.87;95071.91;4989440;28;20195;-80
2023/12/14 07:02:00;;;;;;;21.10;14.53;;;;;;;6.61;99.11;95077.72;4971397;28;20327;-80
2023/12/14 07:04:25;;;;;;;16.23;12.70;;;;;;;6.67;98.82;95087.53;4990606;28;20215;-81
2023/12/14 07:06:52;;;;;;;116.57;24.83;;;;;;;6.64;99.02;95083.47;4970965;28;20188;-80
2023/12/14 07:09:17;;;;;;;32.63;14.13;;;;;;;6.71;98.47;95094.84;4973088;28;20261;-80
2023/12/14 07:11:43;;;;;;;96.73;20.93;;;;;;;6.66;99.22;95097.03;4992211;28;20690;-81
2023/12/14 07:14:08;;;;;;;207.73;22.70;;;;;;;6.67;99.20;95103.00;4995326;28;20187;-80
2023/12/14 07:16:34;;;;;;;34.17;14.50;;;;;;;6.70;99.20;95107.88;4978987;28;20589;-82
2023/12/14 07:18:59;;;;;;;26.47;14.43;;;;;;;6.74;98.63;95114.44;4993546;28;20194;-79
2023/12/14 07:21:24;;;;;;;21.60;12.43;;;;;;;6.78;98.54;95118.34;4960393;28;20208;-78
2023/12/14 07:23:50;;;;;;;27.93;13.83;;;;;;;6.73;98.71;95117.97;4979085;28;20196;-80
2023/12/14 07:26:15;;;;;;;39.37;13.60;;;;;;;6.72;98.75;95122.31;4974417;28;20239;-79
2023/12/14 07:28:40;;;;;;;24.43;12.70;;;;;;;6.76;98.49;95126.25;4960052;28;20563;-78
2023/12/14 07:31:06;;;;;;;20.37;11.90;;;;;;;6.72;98.72;95132.63;4993495;28;20223;-79
2023/12/14 07:33:31;;;;;;;16.37;10.57;;;;;;;6.67;98.86;95133.97;4976881;28;20191;-78
2023/12/14 07:35:57;;;;;;;15.93;10.43;;;;;;;6.78;98.69;95134.66;4976074;28;20287;-78
2023/12/14 07:38:22;;;;;;;16.93;11.13;;;;;;;6.86;98.29;95134.00;4993317;28;20204;-79
2023/12/14 07:40:49;;;;;;;16.60;10.27;;;;;;;6.87;98.12;95139.97;4975837;28;20237;-79
2023/12/14 07:43:15;;;;;;;16.23;10.97;;;;;;;6.86;97.96;95152.06;4961311;28;20303;-78
2023/12/14 07:45:40;;;;;;;11.27;8.57;;;;;;;6.73;98.49;95149.75;4974090;28;20290;-79
2023/12/14 07:48:06;;;;;;;11.27;9.20;;;;;;;6.80;98.36;95155.16;4978768;28;20203;-79
2023/12/14 07:50:31;;;;;;;12.97;9.13;;;;;;;6.70;98.16;95160.31;4977034;28;20188;-78
2023/12/14 07:52:56;;;;;;;12.73;10.43;;;;;;;6.77;98.21;95158.84;4993017;28;20184;-78
2023/12/14 07:55:22;;;;;;;11.20;9.27;;;;;;;6.85;97.98;95168.50;4977440;28;20298;-79
2023/12/14 07:57:48;;;;;;;12.10;9.57;;;;;;;6.83;98.19;95175.56;4988465;28;20716;-79
2023/12/14 08:00:14;;;;;;;16.30;12.60;;;;;;;6.88;98.16;95178.53;4989786;28;20192;-78
2023/12/14 08:02:39;;;;;;;13.27;11.43;;;;;;;6.86;98.59;95185.59;4969322;28;20196;-79
2023/12/14 08:05:05;;;;;;;15.13;11.53;;;;;;;6.93;97.72;95191.06;4982365;28;20214;-79
2023/12/14 08:07:33;;;;;;;13.50;12.17;;;;;;;6.77;98.84;95200.13;4971281;28;20203;-78
2023/12/14 08:09:59;;;;;;;12.53;10.30;;;;;;;6.78;98.53;95203.53;4992026;28;20274;-80
2023/12/14 08:12:25;;;;;;;10.90;8.93;;;;;;;6.75;98.92;95208.97;4975157;28;20278;-79
2023/12/14 08:14:51;;;;;;;12.50;11.20;;;;;;;6.86;98.16;95208.84;4974555;28;20222;-79
2023/12/14 08:17:16;;;;;;;12.57;8.67;;;;;;;6.92;97.97;95220.41;4973817;28;20191;-78
2023/12/14 08:19:42;;;;;;;11.80;7.10;;;;;;;6.84;98.20;95215.91;4974324;28;20188;-78
2023/12/14 08:22:10;;;;;;;8.60;7.33;;;;;;;6.82;98.25;95222.97;4973558;28;20307;-78
2023/12/14 08:24:39;;;;;;;10.17;7.40;;;;;;;6.82;97.80;95230.72;4990884;28;20764;-78
2023/12/14 08:27:04;;;;;;;10.93;9.03;;;;;;;6.89;97.61;95231.81;4988503;28;20279;-79
2023/12/14 08:29:30;;;;;;;11.33;8.50;;;;;;;6.90;97.35;95237.81;4955149;28;20725;-79
2023/12/14 08:31:57;;;;;;;10.90;8.23;;;;;;;6.99;97.20;95245.56;4970142;28;20176;-79
2023/12/14 08:34:23;;;;;;;12.87;9.13;;;;;;;6.99;97.38;95248.16;4975517;28;20212;-79
2023/12/14 08:36:49;;;;;;;12.63;8.63;;;;;;;6.99;97.60;95249.91;4975706;28;20188;-80
2023/12/14 08:39:14;;;;;;;11.00;9.53;;;;;;;6.94;97.41;95259.81;4975269;28;20199;-81
2023/12/14 08:41:41;;;;;;;11.93;10.30;;;;;;;6.91;97.87;95268.63;4992387;28;20685;-79
2023/12/14 08:44:06;;;;;;;12.63;9.10;;;;;;;6.99;97.31;95273.97;4974764;28;20208;-78
2023/12/14 08:46:41;;;;;;;13.13;10.87;;;;;;;7.04;97.56;95271.78;4975548;28;20581;-78
2023/12/14 08:49:06;;;;;;;13.67;9.63;;;;;;;7.04;97.24;95282.09;4975273;28;20188;-79
2023/12/14 08:51:32;;;;;;;13.50;10.07;;;;;;;7.09;97.18;95285.13;4969428;28;20183;-79
2023/12/14 08:53:57;;;;;;;12.23;9.93;;;;;;;7.10;97.01;95291.91;4966348;28;20192;-79
2023/12/14 08:56:23;;;;;;;15.50;12.83;;;;;;;7.16;96.71;95297.50;4975542;28;20282;-79
2023/12/14 08:58:48;;;;;;;13.40;9.83;;;;;;;7.25;96.77;95301.88;4977316;28;20319;-78
2023/12/14 09:01:20;;;;;;;12.87;8.67;;;;;;;7.32;96.53;95308.94;4974683;28;20223;-79
2023/12/14 09:03:46;;;;;;;10.97;9.20;;;;;;;7.34;96.06;95309.66;4977249;28;20271;-79
2023/12/14 09:06:11;;;;;;;10.60;9.03;;;;;;;7.39;95.73;95317.78;4973743;28;20315;-79
2023/12/14 09:08:36;;;;;;;11.10;8.80;;;;;;;7.41;95.97;95322.00;4973091;28;20203;-77
2023/12/14 09:11:02;;;;;;;12.40;9.37;;;;;;;7.52;95.71;95320.13;4988436;28;20217;-78
2023/12/14 09:13:27;;;;;;;12.60;7.93;;;;;;;7.43;95.18;95323.53;4987654;28;20274;-78
2023/12/14 09:15:53;;;;;;;11.27;7.83;;;;;;;7.51;95.29;95323.69;4972643;28;20248;-79
2023/12/14 09:18:20;;;;;;;10.20;7.50;;;;;;;7.54;94.73;95330.34;4973955;28;20184;-77
2023/12/14 09:20:45;;;;;;;9.37;8.03;;;;;;;7.52;95.13;95335.66;4992240;28;20219;-78
2023/12/14 09:23:10;;;;;;;10.27;6.90;;;;;;;7.31;94.83;95337.50;4973268;28;20681;-77
2023/12/14 09:25:36;;;;;;;9.57;6.67;;;;;;;7.36;94.92;95340.50;4989593;28;20240;-77
2023/12/14 09:28:01;;;;;;;9.03;7.90;;;;;;;7.60;94.74;95348.72;4990398;28;20187;-77
2023/12/14 09:30:27;;;;;;;8.97;8.07;;;;;;;7.74;93.84;95352.66;4991901;28;20653;-80
2023/12/14 09:32:52;;;;;;;8.40;6.97;;;;;;;7.94;93.54;95356.88;4957917;28;20213;-79
2023/12/14 09:35:18;;;;;;;8.40;6.30;;;;;;;8.09;93.01;95362.47;4989091;28;20627;-79
2023/12/14 09:37:43;;;;;;;9.97;6.63;;;;;;;8.10;91.91;95377.03;4973516;28;20187;-79
2023/12/14 09:40:10;;;;;;;8.83;5.13;;;;;;;8.11;91.30;95370.06;4991662;28;20588;-79
2023/12/14 09:42:39;;;;;;;7.17;4.87;;;;;;;8.12;91.02;95380.28;4991026;28;20712;-78
2023/12/14 09:45:07;;;;;;;6.03;5.20;;;;;;;8.00;90.78;95375.41;4991651;28;20315;-79
2023/12/14 09:47:32;;;;;;;5.27;4.77;;;;;;;8.08;91.16;95376.34;4992928;28;20191;-79
2023/12/14 09:49:58;;;;;;;12.03;6.87;;;;;;;8.27;91.05;95382.47;4991364;28;20188;-79
2023/12/14 09:52:24;;;;;;;7.80;7.00;;;;;;;8.40;90.54;95388.22;4974529;28;20188;-77
2023/12/14 09:54:49;;;;;;;6.63;5.70;;;;;;;8.24;89.85;95391.31;4969410;28;20600;-78
2023/12/14 09:57:15;;;;;;;6.93;6.17;;;;;;;8.41;89.89;95393.25;4964591;28;20207;-79
2023/12/14 09:59:41;;;;;;;7.50;5.37;;;;;;;8.37;89.36;95391.06;4984858;28;20181;-77
2023/12/14 10:02:11;;;;;;;6.37;5.23;;;;;;;8.52;89.61;95394.88;4985930;28;20670;-78
2023/12/14 10:04:37;;;;;;;5.80;4.90;;;;;;;8.58;89.27;95398.69;4968453;28;20212;-78
2023/12/14 10:07:06;;;;;;;8.53;5.77;;;;;;;8.47;89.11;95405.63;4982171;28;20190;-77
2023/12/14 10:09:32;;;;;;;5.50;3.97;;;;;;;8.36;88.90;95404.97;4986106;28;20830;-78
2023/12/14 10:12:08;;;;;;;5.83;4.17;;;;;;;8.41;89.90;95403.59;4970635;28;20205;-78
2023/12/14 10:14:34;;;;;;;4.27;3.83;;;;;;;8.34;89.51;95412.84;4969709;28;20234;-78
2023/12/14 10:17:17;;;;;;;3.70;3.23;;;;;;;8.19;89.94;95422.75;4969973;28;20230;-79
2023/12/14 10:19:44;;;;;;;4.43;3.90;;;;;;;8.27;89.84;95421.28;4966237;28;20188;-77
2023/12/14 10:22:10;;;;;;;8.80;4.30;;;;;;;8.08;90.12;95435.03;4971157;28;20199;-78
2023/12/14 10:24:35;;;;;;;6.70;4.90;;;;;;;8.17;89.88;95427.25;4970527;28;20955;-78
2023/12/14 10:27:07;;;;;;;5.97;5.37;;;;;;;8.01;90.60;95433.91;4989761;28;20769;-77
2023/12/14 10:29:34;;;;;;;6.40;5.60;;;;;;;8.10;90.78;95431.34;4961659;28;20190;-77
2023/12/14 10:32:01;;;;;;;10.70;6.07;;;;;;;8.10;91.24;95428.75;4976626;28;20231;-79
2023/12/14 10:34:27;;;;;;;6.87;6.17;;;;;;;8.12;91.10;95439.78;4972605;28;20211;-78
2023/12/14 10:36:52;;;;;;;8.50;7.10;;;;;;;8.24;91.04;95433.53;4968637;28;20301;-78
2023/12/14 10:39:18;;;;;;;6.60;5.90;;;;;;;8.20;91.35;95445.09;4972168;28;20187;-78
2023/12/14 10:41:48;;;;;;;6.20;5.30;;;;;;;8.07;90.87;95438.56;4989321;28;20266;-79
2023/12/14 10:44:14;;;;;;;9.23;6.73;;;;;;;7.99;91.95;95449.56;4975463;28;20242;-77
2023/12/14 10:46:40;;;;;;;7.27;6.00;;;;;;;7.90;92.23;95440.84;4988974;28;20226;-79
2023/12/14 10:49:06;;;;;;;8.07;6.97;;;;;;;7.98;91.93;95445.34;4988260;28;20211;-79
2023/12/14 10:51:32;;;;;;;11.63;7.53;;;;;;;8.14;91.75;95448.25;4973259;28;20595;-79
2023/12/14 10:53:57;;;;;;;14.20;11.13;;;;;;;8.11;91.87;95456.25;4974834;28;20234;-79
2023/12/14 10:56:23;;;;;;;12.20;9.47;;;;;;;8.17;92.09;95462.66;4974925;28;20196;-80
2023/12/14 10:58:52;;;;;;;7.67;6.77;;;;;;;8.22;91.08;95456.13;4991658;28;20669;-80
2023/12/14 11:01:24;;;;;;;10.17;7.90;;;;;;;8.19;90.75;95460.75;4976356;28;20270;-81
2023/12/14 11:03:50;;;;;;;7.93;7.13;;;;;;;8.31;90.59;95464.03;4993204;28;20192;-79
2023/12/14 11:06:21;;;;;;;9.13;7.60;;;;;;;8.63;89.91;95464.59;4978500;28;20674;-79
2023/12/14 11:08:46;;;;;;;8.57;6.90;;;;;;;8.50;89.97;95471.84;4991686;28;20179;-78
2023/12/14 11:11:13;;;;;;;8.40;6.10;;;;;;;8.41;89.58;95475.25;4993987;28;20195;-79
2023/12/14 11:13:39;;;;;;;9.83;7.23;;;;;;;8.36;89.76;95475.63;4988254;28;20773;-78
2023/12/14 11:16:05;;;;;;;8.03;6.53;;;;;;;8.40;89.08;95478.78;4989021;28;20230;-79
2023/12/14 11:18:31;;;;;;;8.83;6.37;;;;;;;8.28;89.57;95477.22;4991628;28;20689;-79
2023/12/14 11:21:01;;;;;;;8.60;5.80;;;;;;;8.38;89.19;95483.25;4961350;28;20403;-79
2023/12/14 11:23:36;;;;;;;7.20;6.30;;;;;;;8.48;89.42;95486.66;4972262;28;20194;-79
2023/12/14 11:26:08;;;;;;;15.10;10.80;;;;;;;8.34;89.07;95482.69;4992426;28;20577;-79
2023/12/14 11:28:43;;;;;;;10.20;7.43;;;;;;;8.51;88.82;95489.81;4976744;28;20187;-79
2023/12/14 11:31:12;;;;;;;10.23;6.50;;;;;;;8.57;88.02;95495.38;4969874;28;20176;-79
2023/12/14 11:33:37;;;;;;;8.17;5.67;;;;;;;8.31;87.49;95495.09;4973601;28;20962;-79